sensor_id;sensor_type;location;lat;lon;timestamp;noise_LAeq;noise_LA_min;noise_LA_max;noise_LA01;noise_LA95
66452;Laerm;56831;52.380;4.744;2023-02-18T00:00:00;35.38;32.99;37.24;;
66452;Laerm;56831;52.380;4.744;2023-02-18T00:00:12;36.26;33.61;45.14;;
66452;Laerm;56831;52.380;4.744;2023-02-18T00:00:24;37.71;33.28;51.46;;
66452;Laerm;56831;52.380;4.744;2023-02-18T00:00:34;36.03;32.79;39.93;;
66452;Laerm;56831;52.380;4.744;2023-02-18T00:00:45;34.69;32.84;36.44;;
66452;Laerm;56831;52.380;4.744;2023-02-18T00:01:02;35.18;33.30;38.65;;
66452;Laerm;56831;52.380;4.744;2023-02-18T00:01:18;34.89;33.26;37.00;;
66452;Laerm;56831;52.380;4.744;2023-02-18T00:01:31;36.09;34.04;37.72;;
66452;Laerm;56831;52.380;4.744;2023-02-18T00:01:44;36.10;33.79;38.48;;
66452;Laerm;56831;52.380;4.744;2023-02-18T00:01:57;38.24;34.05;41.59;;
66452;Laerm;56831;52.380;4.744;2023-02-18T00:02:08;36.00;32.91;40.08;;
66452;Laerm;56831;52.380;4.744;2023-02-18T00:02:21;36.70;34.01;40.99;;
66452;Laerm;56831;52.380;4.744;2023-02-18T00:02:34;37.01;34.00;48.20;;
66452;Laerm;56831;52.380;4.744;2023-02-18T00:02:45;35.23;32.47;37.85;;
66452;Laerm;56831;52.380;4.744;2023-02-18T00:03:12;35.00;33.18;42.02;;
66452;Laerm;56831;52.380;4.744;2023-02-18T00:03:23;35.81;33.28;38.60;;
66452;Laerm;56831;52.380;4.744;2023-02-18T00:03:36;35.54;33.51;37.73;;
66452;Laerm;56831;52.380;4.744;2023-02-18T00:03:47;38.19;34.08;46.05;;
66452;Laerm;56831;52.380;4.744;2023-02-18T00:03:58;35.54;33.32;38.89;;
66452;Laerm;56831;52.380;4.744;2023-02-18T00:04:09;34.77;32.49;38.14;;
66452;Laerm;56831;52.380;4.744;2023-02-18T00:04:39;34.60;32.22;37.57;;
66452;Laerm;56831;52.380;4.744;2023-02-18T00:04:49;33.49;31.36;35.53;;
66452;Laerm;56831;52.380;4.744;2023-02-18T00:05:05;34.83;32.28;41.34;;
66452;Laerm;56831;52.380;4.744;2023-02-18T00:05:24;35.04;32.39;41.54;;
66452;Laerm;56831;52.380;4.744;2023-02-18T00:05:41;35.13;32.92;39.34;;
66452;Laerm;56831;52.380;4.744;2023-02-18T00:05:55;35.00;32.80;36.72;;
66452;Laerm;56831;52.380;4.744;2023-02-18T00:06:44;36.40;33.30;46.47;;
66452;Laerm;56831;52.380;4.744;2023-02-18T00:06:58;38.69;33.77;47.26;;
66452;Laerm;56831;52.380;4.744;2023-02-18T00:07:11;38.20;34.94;43.62;;
66452;Laerm;56831;52.380;4.744;2023-02-18T00:07:22;38.79;33.11;47.08;;
66452;Laerm;56831;52.380;4.744;2023-02-18T00:07:33;34.95;33.23;36.96;;
66452;Laerm;56831;52.380;4.744;2023-02-18T00:07:44;35.67;32.81;44.09;;
66452;Laerm;56831;52.380;4.744;2023-02-18T00:08:02;35.05;32.60;42.36;;
66452;Laerm;56831;52.380;4.744;2023-02-18T00:08:12;35.23;32.69;39.77;;
66452;Laerm;56831;52.380;4.744;2023-02-18T00:08:23;36.13;33.22;46.68;;
66452;Laerm;56831;52.380;4.744;2023-02-18T00:08:33;37.49;32.87;46.34;;
66452;Laerm;56831;52.380;4.744;2023-02-18T00:08:50;35.10;31.63;44.49;;
66452;Laerm;56831;52.380;4.744;2023-02-18T00:09:03;35.29;33.68;37.54;;
66452;Laerm;56831;52.380;4.744;2023-02-18T00:09:14;36.26;33.66;38.48;;
66452;Laerm;56831;52.380;4.744;2023-02-18T00:09:25;35.95;34.11;38.51;;
66452;Laerm;56831;52.380;4.744;2023-02-18T00:09:41;34.52;32.47;37.00;;
66452;Laerm;56831;52.380;4.744;2023-02-18T00:09:57;34.67;31.89;43.44;;
66452;Laerm;56831;52.380;4.744;2023-02-18T00:10:10;33.86;32.41;35.48;;
66452;Laerm;56831;52.380;4.744;2023-02-18T00:10:21;34.38;32.18;39.23;;
66452;Laerm;56831;52.380;4.744;2023-02-18T00:10:41;34.55;32.54;39.17;;
66452;Laerm;56831;52.380;4.744;2023-02-18T00:10:57;34.64;32.06;42.77;;
66452;Laerm;56831;52.380;4.744;2023-02-18T00:11:11;34.29;32.22;39.35;;
66452;Laerm;56831;52.380;4.744;2023-02-18T00:11:30;34.27;31.91;36.67;;
66452;Laerm;56831;52.380;4.744;2023-02-18T00:11:43;34.86;32.41;37.95;;
66452;Laerm;56831;52.380;4.744;2023-02-18T00:11:59;36.23;33.98;39.30;;
66452;Laerm;56831;52.380;4.744;2023-02-18T00:12:09;35.49;33.82;38.94;;
66452;Laerm;56831;52.380;4.744;2023-02-18T00:12:22;36.13;32.55;44.36;;
66452;Laerm;56831;52.380;4.744;2023-02-18T00:12:33;34.02;32.19;37.64;;
66452;Laerm;56831;52.380;4.744;2023-02-18T00:12:45;35.69;32.97;42.02;;
66452;Laerm;56831;52.380;4.744;2023-02-18T00:12:56;34.67;32.41;40.19;;
66452;Laerm;56831;52.380;4.744;2023-02-18T00:13:13;33.58;31.80;35.61;;
66452;Laerm;56831;52.380;4.744;2023-02-18T00:13:24;33.27;31.70;34.76;;
66452;Laerm;56831;52.380;4.744;2023-02-18T00:13:36;33.69;32.31;35.36;;
66452;Laerm;56831;52.380;4.744;2023-02-18T00:13:53;36.57;31.89;51.31;;
66452;Laerm;56831;52.380;4.744;2023-02-18T00:14:13;35.35;32.30;39.13;;
66452;Laerm;56831;52.380;4.744;2023-02-18T00:14:28;34.18;32.22;35.82;;
66452;Laerm;56831;52.380;4.744;2023-02-18T00:14:39;33.86;32.36;35.80;;
66452;Laerm;56831;52.380;4.744;2023-02-18T00:14:49;33.59;31.99;35.59;;
66452;Laerm;56831;52.380;4.744;2023-02-18T00:15:00;33.19;31.58;34.69;;
66452;Laerm;56831;52.380;4.744;2023-02-18T00:15:13;33.38;31.75;38.24;;
66452;Laerm;56831;52.380;4.744;2023-02-18T00:15:26;34.50;31.86;38.55;;
66452;Laerm;56831;52.380;4.744;2023-02-18T00:15:38;35.68;33.60;38.54;;
66452;Laerm;56831;52.380;4.744;2023-02-18T00:15:51;37.57;34.87;41.71;;
66452;Laerm;56831;52.380;4.744;2023-02-18T00:16:03;35.47;32.86;37.49;;
66452;Laerm;56831;52.380;4.744;2023-02-18T00:16:25;34.95;33.02;37.02;;
66452;Laerm;56831;52.380;4.744;2023-02-18T00:16:51;35.03;32.46;36.94;;
66452;Laerm;56831;52.380;4.744;2023-02-18T00:17:03;35.92;33.44;38.01;;
66452;Laerm;56831;52.380;4.744;2023-02-18T00:17:15;35.12;33.08;37.81;;
66452;Laerm;56831;52.380;4.744;2023-02-18T00:17:28;34.79;32.94;37.46;;
66452;Laerm;56831;52.380;4.744;2023-02-18T00:17:41;36.05;33.55;40.66;;
66452;Laerm;56831;52.380;4.744;2023-02-18T00:17:59;35.25;32.75;44.94;;
66452;Laerm;56831;52.380;4.744;2023-02-18T00:18:22;35.05;32.57;43.46;;
66452;Laerm;56831;52.380;4.744;2023-02-18T00:18:33;33.52;32.20;35.55;;
66452;Laerm;56831;52.380;4.744;2023-02-18T00:18:45;33.76;31.49;36.18;;
66452;Laerm;56831;52.380;4.744;2023-02-18T00:19:04;34.14;32.50;36.18;;
66452;Laerm;56831;52.380;4.744;2023-02-18T00:19:25;37.56;32.23;50.52;;
66452;Laerm;56831;52.380;4.744;2023-02-18T00:19:40;35.50;32.47;44.66;;
66452;Laerm;56831;52.380;4.744;2023-02-18T00:19:54;45.68;33.08;57.41;;
66452;Laerm;56831;52.380;4.744;2023-02-18T00:20:08;34.62;32.15;40.91;;
66452;Laerm;56831;52.380;4.744;2023-02-18T00:20:22;34.27;32.50;36.52;;
66452;Laerm;56831;52.380;4.744;2023-02-18T00:20:33;33.97;32.17;36.93;;
66452;Laerm;56831;52.380;4.744;2023-02-18T00:20:45;36.58;32.77;48.67;;
66452;Laerm;56831;52.380;4.744;2023-02-18T00:21:02;35.76;32.63;43.19;;
66452;Laerm;56831;52.380;4.744;2023-02-18T00:21:13;35.09;33.16;41.71;;
66452;Laerm;56831;52.380;4.744;2023-02-18T00:21:47;33.44;31.77;35.07;;
66452;Laerm;56831;52.380;4.744;2023-02-18T00:21:58;33.72;31.22;41.45;;
66452;Laerm;56831;52.380;4.744;2023-02-18T00:22:13;33.18;31.79;35.42;;
66452;Laerm;56831;52.380;4.744;2023-02-18T00:22:24;33.50;31.52;38.31;;
66452;Laerm;56831;52.380;4.744;2023-02-18T00:22:35;35.88;33.19;47.12;;
66452;Laerm;56831;52.380;4.744;2023-02-18T00:22:46;35.44;32.34;46.34;;
66452;Laerm;56831;52.380;4.744;2023-02-18T00:23:01;33.64;32.00;35.39;;
66452;Laerm;56831;52.380;4.744;2023-02-18T00:23:25;34.37;32.19;36.64;;
66452;Laerm;56831;52.380;4.744;2023-02-18T00:24:01;34.11;31.89;39.38;;
66452;Laerm;56831;52.380;4.744;2023-02-18T00:24:19;38.11;32.58;48.26;;
66452;Laerm;56831;52.380;4.744;2023-02-18T00:24:31;34.28;32.47;37.36;;
66452;Laerm;56831;52.380;4.744;2023-02-18T00:24:45;35.20;32.94;39.79;;
66452;Laerm;56831;52.380;4.744;2023-02-18T00:25:41;36.59;32.32;48.22;;
66452;Laerm;56831;52.380;4.744;2023-02-18T00:26:15;35.68;32.30;46.76;;
66452;Laerm;56831;52.380;4.744;2023-02-18T00:26:35;39.22;32.97;53.27;;
66452;Laerm;56831;52.380;4.744;2023-02-18T00:26:48;35.25;33.45;39.57;;
66452;Laerm;56831;52.380;4.744;2023-02-18T00:27:06;35.19;32.84;39.17;;
66452;Laerm;56831;52.380;4.744;2023-02-18T00:27:26;34.59;32.41;41.10;;
66452;Laerm;56831;52.380;4.744;2023-02-18T00:27:42;39.28;32.13;55.80;;
66452;Laerm;56831;52.380;4.744;2023-02-18T00:27:56;35.26;31.98;44.73;;
66452;Laerm;56831;52.380;4.744;2023-02-18T00:28:11;36.29;32.32;52.69;;
66452;Laerm;56831;52.380;4.744;2023-02-18T00:28:40;35.37;31.48;50.21;;
66452;Laerm;56831;52.380;4.744;2023-02-18T00:28:57;35.91;31.59;50.32;;
66452;Laerm;56831;52.380;4.744;2023-02-18T00:29:16;33.95;31.75;40.59;;
66452;Laerm;56831;52.380;4.744;2023-02-18T00:29:28;33.44;31.80;36.09;;
66452;Laerm;56831;52.380;4.744;2023-02-18T00:29:42;33.06;31.64;35.82;;
66452;Laerm;56831;52.380;4.744;2023-02-18T00:29:59;33.82;31.33;39.83;;
66452;Laerm;56831;52.380;4.744;2023-02-18T00:30:13;33.01;31.22;35.59;;
66452;Laerm;56831;52.380;4.744;2023-02-18T00:30:34;34.02;31.45;40.68;;
66452;Laerm;56831;52.380;4.744;2023-02-18T00:30:45;34.02;32.22;35.86;;
66452;Laerm;56831;52.380;4.744;2023-02-18T00:31:05;34.35;32.11;37.31;;
66452;Laerm;56831;52.380;4.744;2023-02-18T00:31:26;33.60;31.88;35.27;;
66452;Laerm;56831;52.380;4.744;2023-02-18T00:31:39;34.17;32.29;36.58;;
66452;Laerm;56831;52.380;4.744;2023-02-18T00:31:50;42.71;32.13;55.06;;
66452;Laerm;56831;52.380;4.744;2023-02-18T00:32:04;34.92;32.02;41.75;;
66452;Laerm;56831;52.380;4.744;2023-02-18T00:32:15;33.88;31.84;35.45;;
66452;Laerm;56831;52.380;4.744;2023-02-18T00:32:26;34.78;31.93;43.32;;
66452;Laerm;56831;52.380;4.744;2023-02-18T00:32:37;34.81;31.49;44.38;;
66452;Laerm;56831;52.380;4.744;2023-02-18T00:32:50;35.36;31.91;45.19;;
66452;Laerm;56831;52.380;4.744;2023-02-18T00:33:01;35.44;32.42;39.42;;
66452;Laerm;56831;52.380;4.744;2023-02-18T00:33:11;34.24;31.86;39.16;;
66452;Laerm;56831;52.380;4.744;2023-02-18T00:33:25;34.14;31.55;36.95;;
66452;Laerm;56831;52.380;4.744;2023-02-18T00:33:35;33.82;32.20;37.62;;
66452;Laerm;56831;52.380;4.744;2023-02-18T00:33:53;33.96;31.53;40.49;;
66452;Laerm;56831;52.380;4.744;2023-02-18T00:34:04;34.79;31.67;39.52;;
66452;Laerm;56831;52.380;4.744;2023-02-18T00:34:27;34.33;31.80;37.48;;
66452;Laerm;56831;52.380;4.744;2023-02-18T00:35:26;33.53;31.62;35.69;;
66452;Laerm;56831;52.380;4.744;2023-02-18T00:36:30;32.83;30.60;36.06;;
66452;Laerm;56831;52.380;4.744;2023-02-18T00:36:49;33.56;31.70;35.55;;
66452;Laerm;56831;52.380;4.744;2023-02-18T00:37:18;36.06;32.28;53.35;;
66452;Laerm;56831;52.380;4.744;2023-02-18T00:37:33;33.92;31.98;36.20;;
66452;Laerm;56831;52.380;4.744;2023-02-18T00:37:49;33.91;31.84;37.17;;
66452;Laerm;56831;52.380;4.744;2023-02-18T00:38:04;34.75;32.13;46.27;;
66452;Laerm;56831;52.380;4.744;2023-02-18T00:38:19;33.94;32.22;40.41;;
66452;Laerm;56831;52.380;4.744;2023-02-18T00:38:30;33.29;31.30;35.27;;
66452;Laerm;56831;52.380;4.744;2023-02-18T00:38:44;34.19;32.04;39.51;;
66452;Laerm;56831;52.380;4.744;2023-02-18T00:38:57;33.46;31.40;36.98;;
66452;Laerm;56831;52.380;4.744;2023-02-18T00:39:16;33.19;31.64;36.75;;
66452;Laerm;56831;52.380;4.744;2023-02-18T00:39:26;32.89;31.22;34.66;;
66452;Laerm;56831;52.380;4.744;2023-02-18T00:39:43;34.10;31.41;37.21;;
66452;Laerm;56831;52.380;4.744;2023-02-18T00:40:07;33.77;31.35;36.90;;
66452;Laerm;56831;52.380;4.744;2023-02-18T00:40:20;33.06;31.46;35.58;;
66452;Laerm;56831;52.380;4.744;2023-02-18T00:40:38;33.47;31.52;37.89;;
66452;Laerm;56831;52.380;4.744;2023-02-18T00:40:59;33.99;31.71;36.52;;
66452;Laerm;56831;52.380;4.744;2023-02-18T00:41:09;34.85;32.30;39.56;;
66452;Laerm;56831;52.380;4.744;2023-02-18T00:41:22;35.40;32.83;41.46;;
66452;Laerm;56831;52.380;4.744;2023-02-18T00:41:34;34.33;32.49;36.56;;
66452;Laerm;56831;52.380;4.744;2023-02-18T00:41:45;35.01;32.67;38.17;;
66452;Laerm;56831;52.380;4.744;2023-02-18T00:42:04;33.37;31.89;35.14;;
66452;Laerm;56831;52.380;4.744;2023-02-18T00:42:26;33.50;31.44;38.54;;
66452;Laerm;56831;52.380;4.744;2023-02-18T00:42:38;33.89;31.33;38.71;;
66452;Laerm;56831;52.380;4.744;2023-02-18T00:42:49;33.36;31.42;39.63;;
66452;Laerm;56831;52.380;4.744;2023-02-18T00:43:01;32.83;31.02;35.37;;
66452;Laerm;56831;52.380;4.744;2023-02-18T00:43:33;34.08;31.78;37.97;;
66452;Laerm;56831;52.380;4.744;2023-02-18T00:43:46;36.10;33.49;38.94;;
66452;Laerm;56831;52.380;4.744;2023-02-18T00:44:06;39.44;33.84;44.58;;
66452;Laerm;56831;52.380;4.744;2023-02-18T00:44:38;44.03;37.83;51.83;;
66452;Laerm;56831;52.380;4.744;2023-02-18T00:45:17;40.37;33.27;58.18;;
66452;Laerm;56831;52.380;4.744;2023-02-18T00:45:33;36.82;33.52;40.46;;
66452;Laerm;56831;52.380;4.744;2023-02-18T00:45:47;36.60;31.71;42.59;;
66452;Laerm;56831;52.380;4.744;2023-02-18T00:46:05;33.70;32.09;36.04;;
66452;Laerm;56831;52.380;4.744;2023-02-18T00:46:19;35.55;31.88;41.97;;
66452;Laerm;56831;52.380;4.744;2023-02-18T00:46:37;39.32;32.80;57.30;;
66452;Laerm;56831;52.380;4.744;2023-02-18T00:46:51;46.10;34.04;67.21;;
66452;Laerm;56831;52.380;4.744;2023-02-18T00:47:02;41.51;36.60;53.57;;
66452;Laerm;56831;52.380;4.744;2023-02-18T00:47:14;41.77;36.55;55.82;;
66452;Laerm;56831;52.380;4.744;2023-02-18T00:47:25;43.45;37.58;50.64;;
66452;Laerm;56831;52.380;4.744;2023-02-18T00:47:38;40.98;37.34;45.67;;
66452;Laerm;56831;52.380;4.744;2023-02-18T00:47:55;39.73;33.44;47.55;;
66452;Laerm;56831;52.380;4.744;2023-02-18T00:48:17;39.55;33.92;45.57;;
66452;Laerm;56831;52.380;4.744;2023-02-18T00:48:30;35.83;32.31;47.18;;
66452;Laerm;56831;52.380;4.744;2023-02-18T00:49:00;38.53;32.08;53.57;;
66452;Laerm;56831;52.380;4.744;2023-02-18T00:49:10;37.39;32.50;54.66;;
66452;Laerm;56831;52.380;4.744;2023-02-18T00:49:26;35.09;32.66;37.47;;
66452;Laerm;56831;52.380;4.744;2023-02-18T00:49:40;34.43;32.28;36.87;;
66452;Laerm;56831;52.380;4.744;2023-02-18T00:49:51;36.66;32.86;44.09;;
66452;Laerm;56831;52.380;4.744;2023-02-18T00:50:11;38.30;33.02;57.29;;
66452;Laerm;56831;52.380;4.744;2023-02-18T00:50:27;34.16;31.50;36.82;;
66452;Laerm;56831;52.380;4.744;2023-02-18T00:50:38;33.34;31.32;38.95;;
66452;Laerm;56831;52.380;4.744;2023-02-18T00:50:51;34.90;31.62;46.69;;
66452;Laerm;56831;52.380;4.744;2023-02-18T00:51:03;36.46;31.35;49.38;;
66452;Laerm;56831;52.380;4.744;2023-02-18T00:51:17;38.85;32.59;52.10;;
66452;Laerm;56831;52.380;4.744;2023-02-18T00:51:46;35.98;32.34;45.56;;
66452;Laerm;56831;52.380;4.744;2023-02-18T00:51:58;34.86;31.96;44.23;;
66452;Laerm;56831;52.380;4.744;2023-02-18T00:52:14;34.43;31.93;40.10;;
66452;Laerm;56831;52.380;4.744;2023-02-18T00:52:48;36.59;31.11;55.14;;
66452;Laerm;56831;52.380;4.744;2023-02-18T00:53:04;41.27;32.50;54.69;;
66452;Laerm;56831;52.380;4.744;2023-02-18T00:53:24;41.59;32.94;58.02;;
66452;Laerm;56831;52.380;4.744;2023-02-18T00:53:34;38.84;32.51;47.70;;
66452;Laerm;56831;52.380;4.744;2023-02-18T00:53:50;34.12;32.25;41.62;;
66452;Laerm;56831;52.380;4.744;2023-02-18T00:54:04;32.96;31.23;34.88;;
66452;Laerm;56831;52.380;4.744;2023-02-18T00:54:18;34.41;32.43;41.66;;
66452;Laerm;56831;52.380;4.744;2023-02-18T00:54:33;34.87;32.49;40.54;;
66452;Laerm;56831;52.380;4.744;2023-02-18T00:54:48;36.17;32.46;46.97;;
66452;Laerm;56831;52.380;4.744;2023-02-18T00:55:05;37.01;33.69;45.63;;
66452;Laerm;56831;52.380;4.744;2023-02-18T00:55:19;34.22;32.25;38.81;;
66452;Laerm;56831;52.380;4.744;2023-02-18T00:55:30;33.34;31.71;35.17;;
66452;Laerm;56831;52.380;4.744;2023-02-18T00:56:01;39.21;31.85;54.04;;
66452;Laerm;56831;52.380;4.744;2023-02-18T00:56:12;34.93;32.24;44.42;;
66452;Laerm;56831;52.380;4.744;2023-02-18T00:56:40;35.48;30.43;46.34;;
66452;Laerm;56831;52.380;4.744;2023-02-18T00:56:55;36.73;31.59;52.61;;
66452;Laerm;56831;52.380;4.744;2023-02-18T00:57:08;42.60;32.26;54.72;;
66452;Laerm;56831;52.380;4.744;2023-02-18T00:57:27;34.86;31.31;46.35;;
66452;Laerm;56831;52.380;4.744;2023-02-18T00:57:47;36.83;32.49;46.91;;
66452;Laerm;56831;52.380;4.744;2023-02-18T00:58:06;36.30;31.21;47.77;;
66452;Laerm;56831;52.380;4.744;2023-02-18T00:58:25;33.73;30.82;44.64;;
66452;Laerm;56831;52.380;4.744;2023-02-18T00:58:38;34.87;30.87;46.48;;
66452;Laerm;56831;52.380;4.744;2023-02-18T00:58:50;34.90;31.81;43.87;;
66452;Laerm;56831;52.380;4.744;2023-02-18T00:59:15;35.95;31.38;49.05;;
66452;Laerm;56831;52.380;4.744;2023-02-18T00:59:32;38.47;30.75;55.98;;
66452;Laerm;56831;52.380;4.744;2023-02-18T00:59:48;36.61;31.09;49.78;;
66452;Laerm;56831;52.380;4.744;2023-02-18T01:00:04;36.82;31.46;44.04;;
66452;Laerm;56831;52.380;4.744;2023-02-18T01:00:15;34.98;30.82;44.71;;
66452;Laerm;56831;52.380;4.744;2023-02-18T01:00:32;39.66;31.31;51.15;;
66452;Laerm;56831;52.380;4.744;2023-02-18T01:00:46;34.32;30.92;42.18;;
66452;Laerm;56831;52.380;4.744;2023-02-18T01:01:01;34.96;30.61;46.07;;
66452;Laerm;56831;52.380;4.744;2023-02-18T01:01:17;33.30;31.20;35.64;;
66452;Laerm;56831;52.380;4.744;2023-02-18T01:01:34;36.37;30.61;49.74;;
66452;Laerm;56831;52.380;4.744;2023-02-18T01:02:02;33.19;30.95;36.95;;
66452;Laerm;56831;52.380;4.744;2023-02-18T01:02:33;33.70;30.44;45.70;;
66452;Laerm;56831;52.380;4.744;2023-02-18T01:02:52;33.55;31.42;44.81;;
66452;Laerm;56831;52.380;4.744;2023-02-18T01:03:05;33.10;31.47;34.67;;
66452;Laerm;56831;52.380;4.744;2023-02-18T01:03:19;32.81;30.93;36.65;;
66452;Laerm;56831;52.380;4.744;2023-02-18T01:03:33;33.63;30.34;43.12;;
66452;Laerm;56831;52.380;4.744;2023-02-18T01:03:45;33.28;31.53;39.03;;
66452;Laerm;56831;52.380;4.744;2023-02-18T01:04:04;37.99;31.21;49.83;;
66452;Laerm;56831;52.380;4.744;2023-02-18T01:04:15;35.51;31.07;53.05;;
66452;Laerm;56831;52.380;4.744;2023-02-18T01:04:37;39.19;32.21;54.94;;
66452;Laerm;56831;52.380;4.744;2023-02-18T01:04:48;35.48;32.54;41.82;;
66452;Laerm;56831;52.380;4.744;2023-02-18T01:05:00;36.11;34.01;43.02;;
66452;Laerm;56831;52.380;4.744;2023-02-18T01:05:17;36.25;34.30;38.91;;
66452;Laerm;56831;52.380;4.744;2023-02-18T01:05:27;36.97;34.32;42.66;;
66452;Laerm;56831;52.380;4.744;2023-02-18T01:05:38;38.21;33.47;51.59;;
66452;Laerm;56831;52.380;4.744;2023-02-18T01:05:54;44.11;34.09;60.52;;
66452;Laerm;56831;52.380;4.744;2023-02-18T01:06:05;36.62;33.65;45.75;;
66452;Laerm;56831;52.380;4.744;2023-02-18T01:06:19;35.07;32.56;44.00;;
66452;Laerm;56831;52.380;4.744;2023-02-18T01:06:33;36.31;32.59;44.93;;
66452;Laerm;56831;52.380;4.744;2023-02-18T01:06:50;33.82;31.67;39.67;;
66452;Laerm;56831;52.380;4.744;2023-02-18T01:07:10;35.70;31.66;48.14;;
66452;Laerm;56831;52.380;4.744;2023-02-18T01:07:26;34.59;31.40;44.76;;
66452;Laerm;56831;52.380;4.744;2023-02-18T01:07:57;37.84;31.24;54.05;;
66452;Laerm;56831;52.380;4.744;2023-02-18T01:08:08;33.84;31.61;36.80;;
66452;Laerm;56831;52.380;4.744;2023-02-18T01:08:19;34.03;31.56;37.00;;
66452;Laerm;56831;52.380;4.744;2023-02-18T01:08:36;34.06;31.55;41.26;;
66452;Laerm;56831;52.380;4.744;2023-02-18T01:09:04;35.57;30.92;47.56;;
66452;Laerm;56831;52.380;4.744;2023-02-18T01:09:22;33.24;31.22;47.51;;
66452;Laerm;56831;52.380;4.744;2023-02-18T01:09:53;35.23;31.74;50.38;;
66452;Laerm;56831;52.380;4.744;2023-02-18T01:10:06;34.51;31.42;46.34;;
66452;Laerm;56831;52.380;4.744;2023-02-18T01:10:20;38.68;32.11;53.70;;
66452;Laerm;56831;52.380;4.744;2023-02-18T01:10:44;46.06;31.76;59.41;;
66452;Laerm;56831;52.380;4.744;2023-02-18T01:10:56;42.35;32.20;55.70;;
66452;Laerm;56831;52.380;4.744;2023-02-18T01:11:17;43.81;31.35;56.52;;
66452;Laerm;56831;52.380;4.744;2023-02-18T01:11:31;38.44;31.84;52.22;;
66452;Laerm;56831;52.380;4.744;2023-02-18T01:11:47;35.00;31.92;46.51;;
66452;Laerm;56831;52.380;4.744;2023-02-18T01:12:04;35.80;31.21;47.75;;
66452;Laerm;56831;52.380;4.744;2023-02-18T01:12:19;33.05;30.79;41.86;;
66452;Laerm;56831;52.380;4.744;2023-02-18T01:12:32;32.87;30.63;37.89;;
66452;Laerm;56831;52.380;4.744;2023-02-18T01:12:42;36.21;32.24;43.15;;
66452;Laerm;56831;52.380;4.744;2023-02-18T01:13:19;33.45;30.77;38.92;;
66452;Laerm;56831;52.380;4.744;2023-02-18T01:13:49;37.96;30.62;59.65;;
66452;Laerm;56831;52.380;4.744;2023-02-18T01:14:25;32.80;30.14;45.61;;
66452;Laerm;56831;52.380;4.744;2023-02-18T01:14:40;34.13;30.75;46.47;;
66452;Laerm;56831;52.380;4.744;2023-02-18T01:15:14;33.81;30.99;40.78;;
66452;Laerm;56831;52.380;4.744;2023-02-18T01:15:43;38.40;32.19;48.59;;
66452;Laerm;56831;52.380;4.744;2023-02-18T01:16:02;37.03;31.48;46.44;;
66452;Laerm;56831;52.380;4.744;2023-02-18T01:16:13;35.42;32.02;44.52;;
66452;Laerm;56831;52.380;4.744;2023-02-18T01:16:24;34.28;31.26;37.89;;
66452;Laerm;56831;52.380;4.744;2023-02-18T01:16:55;35.38;31.16;46.33;;
66452;Laerm;56831;52.380;4.744;2023-02-18T01:17:14;40.34;31.71;53.21;;
66452;Laerm;56831;52.380;4.744;2023-02-18T01:17:24;34.84;32.78;41.24;;
66452;Laerm;56831;52.380;4.744;2023-02-18T01:17:40;37.68;31.40;46.52;;
66452;Laerm;56831;52.380;4.744;2023-02-18T01:18:03;33.22;30.34;49.60;;
66452;Laerm;56831;52.380;4.744;2023-02-18T01:18:14;32.89;30.64;43.40;;
66452;Laerm;56831;52.380;4.744;2023-02-18T01:18:28;35.85;30.53;46.35;;
66452;Laerm;56831;52.380;4.744;2023-02-18T01:18:50;44.53;29.88;64.78;;
66452;Laerm;56831;52.380;4.744;2023-02-18T01:19:11;34.78;30.20;44.16;;
66452;Laerm;56831;52.380;4.744;2023-02-18T01:19:25;32.16;30.36;39.43;;
66452;Laerm;56831;52.380;4.744;2023-02-18T01:19:36;32.06;30.54;37.79;;
66452;Laerm;56831;52.380;4.744;2023-02-18T01:19:51;33.36;30.09;43.57;;
66452;Laerm;56831;52.380;4.744;2023-02-18T01:20:02;36.56;29.82;49.98;;
66452;Laerm;56831;52.380;4.744;2023-02-18T01:20:18;41.20;30.61;57.33;;
66452;Laerm;56831;52.380;4.744;2023-02-18T01:20:34;32.20;29.93;42.93;;
66452;Laerm;56831;52.380;4.744;2023-02-18T01:20:51;33.92;30.24;46.58;;
66452;Laerm;56831;52.380;4.744;2023-02-18T01:21:02;32.70;30.62;38.76;;
66452;Laerm;56831;52.380;4.744;2023-02-18T01:21:23;39.59;30.47;54.51;;
66452;Laerm;56831;52.380;4.744;2023-02-18T01:21:33;33.46;30.33;43.80;;
66452;Laerm;56831;52.380;4.744;2023-02-18T01:21:45;32.12;30.24;37.00;;
66452;Laerm;56831;52.380;4.744;2023-02-18T01:22:02;31.71;30.05;33.57;;
66452;Laerm;56831;52.380;4.744;2023-02-18T01:22:12;31.72;30.54;32.88;;
66452;Laerm;56831;52.380;4.744;2023-02-18T01:22:30;32.79;30.76;36.21;;
66452;Laerm;56831;52.380;4.744;2023-02-18T01:22:45;33.17;30.87;39.26;;
66452;Laerm;56831;52.380;4.744;2023-02-18T01:22:59;33.65;31.60;43.13;;
66452;Laerm;56831;52.380;4.744;2023-02-18T01:23:13;34.09;30.51;45.48;;
66452;Laerm;56831;52.380;4.744;2023-02-18T01:23:31;32.72;30.60;35.28;;
66452;Laerm;56831;52.380;4.744;2023-02-18T01:23:43;42.51;31.41;60.64;;
66452;Laerm;56831;52.380;4.744;2023-02-18T01:24:00;41.47;31.87;51.79;;
66452;Laerm;56831;52.380;4.744;2023-02-18T01:24:13;39.70;31.61;49.46;;
66452;Laerm;56831;52.380;4.744;2023-02-18T01:24:24;32.53;30.85;34.43;;
66452;Laerm;56831;52.380;4.744;2023-02-18T01:24:34;32.74;30.87;40.33;;
66452;Laerm;56831;52.380;4.744;2023-02-18T01:24:45;41.47;31.07;55.43;;
66452;Laerm;56831;52.380;4.744;2023-02-18T01:24:55;32.39;30.88;35.41;;
66452;Laerm;56831;52.380;4.744;2023-02-18T01:25:07;32.28;30.50;36.10;;
66452;Laerm;56831;52.380;4.744;2023-02-18T01:25:39;32.72;30.81;40.64;;
66452;Laerm;56831;52.380;4.744;2023-02-18T01:25:49;32.90;30.24;38.87;;
66452;Laerm;56831;52.380;4.744;2023-02-18T01:26:02;33.53;30.73;43.98;;
66452;Laerm;56831;52.380;4.744;2023-02-18T01:26:12;31.88;30.31;38.92;;
66452;Laerm;56831;52.380;4.744;2023-02-18T01:26:37;33.22;30.95;44.01;;
66452;Laerm;56831;52.380;4.744;2023-02-18T01:26:48;32.86;30.91;35.35;;
66452;Laerm;56831;52.380;4.744;2023-02-18T01:27:05;34.01;31.57;42.26;;
66452;Laerm;56831;52.380;4.744;2023-02-18T01:27:20;32.68;30.83;39.69;;
66452;Laerm;56831;52.380;4.744;2023-02-18T01:27:33;32.95;30.93;38.90;;
66452;Laerm;56831;52.380;4.744;2023-02-18T01:27:48;34.54;31.28;46.26;;
66452;Laerm;56831;52.380;4.744;2023-02-18T01:27:59;34.10;31.37;44.01;;
66452;Laerm;56831;52.380;4.744;2023-02-18T01:28:10;39.46;31.00;51.24;;
66452;Laerm;56831;52.380;4.744;2023-02-18T01:28:22;33.50;31.32;42.25;;
66452;Laerm;56831;52.380;4.744;2023-02-18T01:28:36;33.32;31.55;39.86;;
66452;Laerm;56831;52.380;4.744;2023-02-18T01:28:49;33.62;31.11;45.64;;
66452;Laerm;56831;52.380;4.744;2023-02-18T01:29:06;32.55;30.82;34.84;;
66452;Laerm;56831;52.380;4.744;2023-02-18T01:29:24;34.83;30.48;46.05;;
66452;Laerm;56831;52.380;4.744;2023-02-18T01:29:43;40.69;30.92;56.12;;
66452;Laerm;56831;52.380;4.744;2023-02-18T01:29:54;39.26;31.38;52.98;;
66452;Laerm;56831;52.380;4.744;2023-02-18T01:30:05;34.52;31.00;47.10;;
66452;Laerm;56831;52.380;4.744;2023-02-18T01:30:16;36.01;30.83;50.44;;
66452;Laerm;56831;52.380;4.744;2023-02-18T01:30:35;37.43;32.18;48.90;;
66452;Laerm;56831;52.380;4.744;2023-02-18T01:30:48;37.65;32.77;45.15;;
66452;Laerm;56831;52.380;4.744;2023-02-18T01:31:08;35.03;32.44;39.56;;
66452;Laerm;56831;52.380;4.744;2023-02-18T01:31:21;36.58;32.44;45.60;;